RCSSRCKH

Guest
Details From RCSS - Sungshan
To RCKH - KAOHSIUNG INTL
Flight Number -
Tags decoded
Created
Modified
Stats Distance 172 nm / 319 km
Max Altitude 0 ft / 0 m
Waypoints 3
Social Downloads 22
Likes 0
Share VATSIM

Download

Looking for another format? Having issues loading an existing format? Contact us
Advertisement - Login to hide

Notes

Requested: RCSS MU5H TNN RCKH Unmatched points: MU5H

Route

RCSS TNN RCKH

ID Type Via Altitude Latitude Longitude Leg Dist Tot Dist Heading (true) Name
O RCSS APT - 0 ft / 0 m 25.06959˚ 121.55257˚ - 0 nm - Sungshan
TNN VOR - 0 ft / 0 m 23.13556˚ 120.20639˚ 137 nm 137 nm 213° / 212° SHIKANG VORTAC
O RCKH APT - 0 ft / 0 m 22.57709˚ 120.35001˚ 34 nm 172 nm 167° / 167° KAOHSIUNG INTL

Altitude Profile

Advertisement - Login to hide

Weather


0- 5 10 15 20 25 30 35+ Temperature / ° C

Clouds and Precipitation
Forecast for 2018-05-23 06:00 UTC. Updated 17 minutes ago

Ground ~20,000 ft ~40,000 ft Winds

RCSS

Details ICAO RCSS (TSA)
Name Sungshan
Region Republic of China (Taiwan)
Timezone Asia/Taipei (UTC+8.0)
Stats Elevation 18 ft / 5 m (AMSL)
Location 25.069586° 121.552570°
Runways 1
Magnetic Variation 4.518° W

METAR

RCSS 230330Z 29010KT 270V330 9999 FEW020 SCT035 BKN060 31/23 Q1011 NOSIG RMK 31008KT/R10 A2986

Decode

TAF

TAF RCSS 222303Z 2300/2324 29005KT 9999 FEW020 BKN032 BECMG 2302/2304 09010KT TEMPO 2304/2307 FEW010 BKN020

Decode

Departure Runways

ID Width Length Bearing (true) Bearing (mag) Surface Threshold Offset Overrun Length
10 197 ft / 60 m 8,566 ft / 2,611 m 92.26° 96.78° Asphalt 0 ft / 0 m 197 ft / 60 m
28 197 ft / 60 m 8,566 ft / 2,611 m 272.27° 276.79° Asphalt 0 ft / 0 m 525 ft / 160 m

RCKH

Details ICAO RCKH (KHH)
Name KAOHSIUNG INTL
Region Republic of China (Taiwan)
Timezone Asia/Taipei (UTC+8.0)
Stats Elevation 31 ft / 9 m (AMSL)
Location 22.577093° 120.350006°
Runways 1
Magnetic Variation 3.818° W

METAR

RCKH 230330Z 28009KT 250V310 9999 FEW018 BKN100 33/23 Q1010 NOSIG RMK 30010KT/R09 A2984

Decode

TAF

TAF RCKH 222303Z 2300/2406 04005KT 9999 FEW015 SCT050 BECMG 2300/2302 28008KT BECMG 2310/2312 31005KT TEMPO 2318/2324 04005KT BECMG 2401/2403 28008KT

Decode

Destination Runways

ID Width Length Bearing (true) Bearing (mag) Surface Threshold Offset Overrun Length
09 197 ft / 60 m 10,316 ft / 3,144 m 91.92° 95.74° Concrete 525 ft / 160 m 197 ft / 60 m
27 197 ft / 60 m 10,316 ft / 3,144 m 271.93° 275.75° Concrete 1,477 ft / 450 m 197 ft / 60 m

Approach Navaids

Runway Type Ident Frequency Range Bearing (true) Bearing (mag) Slope Elevation
09 Localiser IKHG 108.30 MHz 18 nm / 33 km 91.97° 95.79° - 31 ft / 9 m (AMSL)
09 Glidescope IKHG 108.30 MHz 10 nm / 19 km 91.92° 95.74° 3.00° 31 ft / 9 m (AMSL)
09 DME IKHG 108.30 MHz 18 nm / 33 km - - - 31 ft / 9 m (AMSL)
27 Localiser IKAS 109.70 MHz 18 nm / 33 km 271.85° 275.67° - 31 ft / 9 m (AMSL)
27 DME IKAS 109.70 MHz 18 nm / 33 km - - - 31 ft / 9 m (AMSL)

Popular Alternatives